createdAt,value
2022-11-15T00:02:46.336Z,12.30
2022-11-15T00:05:37.416Z,12.30
2022-11-15T00:08:24.932Z,12.30
2022-11-15T00:11:14.976Z,12.30
2022-11-15T00:14:03.338Z,12.30
2022-11-15T00:16:50.262Z,12.30
2022-11-15T00:19:37.499Z,12.30
2022-11-15T00:22:24.666Z,12.40
2022-11-15T00:25:11.831Z,12.40
2022-11-15T00:28:02.022Z,12.40
2022-11-15T00:30:48.838Z,12.40
2022-11-15T00:33:36.222Z,12.40
2022-11-15T00:36:23.403Z,12.50
2022-11-15T00:39:10.656Z,12.50
2022-11-15T00:41:57.682Z,12.50
2022-11-15T00:44:46.764Z,12.50
2022-11-15T00:47:33.778Z,12.50
2022-11-15T00:50:21.519Z,12.60
2022-11-15T00:53:08.580Z,12.60
2022-11-15T00:55:55.740Z,12.60
2022-11-15T00:58:42.790Z,12.60
2022-11-15T01:01:31.586Z,12.70
2022-11-15T01:04:18.427Z,12.70
2022-11-15T01:07:05.301Z,12.70
2022-11-15T01:09:52.411Z,12.70
2022-11-15T01:12:39.854Z,12.80
2022-11-15T01:15:26.960Z,12.80
2022-11-15T01:18:16.343Z,12.80
2022-11-15T01:21:09.331Z,12.90
2022-11-15T01:23:56.817Z,12.90
2022-11-15T01:26:44.035Z,12.90
2022-11-15T01:29:30.903Z,12.90
2022-11-15T01:32:18.044Z,13.00
2022-11-15T01:35:07.217Z,13.00
2022-11-15T01:37:57.632Z,13.00
2022-11-15T01:40:44.625Z,13.00
2022-11-15T01:43:34.544Z,13.00
2022-11-15T01:46:30.887Z,13.10
2022-11-15T01:49:23.773Z,13.10
2022-11-15T01:52:16.829Z,13.10
2022-11-15T01:55:10.879Z,13.10
2022-11-15T01:58:03.325Z,13.10
2022-11-15T02:00:52.120Z,13.10
2022-11-15T02:03:46.802Z,13.20
2022-11-15T02:06:34.548Z,13.20
2022-11-15T02:09:23.515Z,13.20
2022-11-15T02:12:13.409Z,13.20
2022-11-15T02:15:00.372Z,13.20
2022-11-15T02:18:12.022Z,13.30
2022-11-15T02:21:20.474Z,13.30
2022-11-15T02:24:47.013Z,13.30
2022-11-15T02:28:00.183Z,13.30
2022-11-15T02:30:52.537Z,13.30
2022-11-15T02:33:50.870Z,13.30
2022-11-15T02:36:44.556Z,13.30
2022-11-15T02:39:39.561Z,13.30
2022-11-15T02:42:46.450Z,13.30
2022-11-15T02:45:39.651Z,13.30
2022-11-15T02:48:28.729Z,13.30
2022-11-15T02:51:17.133Z,13.30
2022-11-15T02:54:04.045Z,13.30
2022-11-15T02:56:52.872Z,13.40
2022-11-15T03:00:09.924Z,13.30
2022-11-15T03:03:15.786Z,13.40
2022-11-15T03:06:16.521Z,13.40
2022-11-15T03:09:10.165Z,13.30
2022-11-15T03:12:08.844Z,13.30
2022-11-15T03:15:03.284Z,13.40
2022-11-15T03:17:55.251Z,13.30
2022-11-15T03:20:44.654Z,13.30
2022-11-15T03:23:34.053Z,13.30
2022-11-15T03:26:24.099Z,13.30
2022-11-15T03:29:15.762Z,13.40
2022-11-15T03:32:08.793Z,13.40
2022-11-15T03:35:00.873Z,13.40
2022-11-15T03:37:55.991Z,13.30
2022-11-15T03:40:49.077Z,13.40
2022-11-15T03:43:44.992Z,13.40
2022-11-15T03:46:39.156Z,13.40
2022-11-15T03:49:31.450Z,13.40
2022-11-15T03:52:20.724Z,13.40
2022-11-15T03:55:12.694Z,13.40
2022-11-15T03:58:03.007Z,13.40
2022-11-15T04:00:50.048Z,13.40
2022-11-15T04:03:37.003Z,13.40
2022-11-15T04:06:23.994Z,13.40
2022-11-15T04:09:11.234Z,13.40
2022-11-15T04:11:58.565Z,13.50
2022-11-15T04:15:06.912Z,13.50
2022-11-15T04:17:56.150Z,13.50
2022-11-15T04:21:00.779Z,13.50
2022-11-15T04:24:05.529Z,13.50
2022-11-15T04:26:52.703Z,13.50
2022-11-15T04:29:40.258Z,13.50
2022-11-15T04:32:29.259Z,13.50
2022-11-15T04:35:16.704Z,13.50
2022-11-15T04:38:05.355Z,13.50
2022-11-15T04:40:52.553Z,13.50
2022-11-15T04:43:39.766Z,13.50
2022-11-15T04:46:27.722Z,13.60
2022-11-15T04:49:15.938Z,13.50
2022-11-15T04:52:02.789Z,13.50
2022-11-15T04:54:50.246Z,13.50
2022-11-15T04:57:37.550Z,13.60
2022-11-15T05:00:24.306Z,13.60
2022-11-15T05:03:30.292Z,13.60
2022-11-15T05:06:19.284Z,13.60
2022-11-15T05:09:06.947Z,13.60
2022-11-15T05:11:54.029Z,13.60
2022-11-15T05:14:41.084Z,13.60
2022-11-15T05:17:28.461Z,13.60
2022-11-15T05:20:15.957Z,13.70
2022-11-15T05:23:04.411Z,13.70
2022-11-15T05:25:51.468Z,13.70
2022-11-15T05:28:40.055Z,13.70
2022-11-15T05:31:28.086Z,13.70
2022-11-15T05:34:15.596Z,13.70
2022-11-15T05:37:02.661Z,13.70
2022-11-15T05:39:51.171Z,13.70
2022-11-15T05:42:38.314Z,13.70
2022-11-15T05:45:27.037Z,13.70
2022-11-15T05:48:15.371Z,13.70
2022-11-15T05:51:03.133Z,13.70
2022-11-15T05:53:50.849Z,13.70
2022-11-15T05:56:39.667Z,13.80
2022-11-15T05:59:27.153Z,13.80
2022-11-15T06:02:14.577Z,13.80
2022-11-15T06:05:01.324Z,13.80
2022-11-15T06:07:48.452Z,13.80
2022-11-15T06:10:35.987Z,13.80
2022-11-15T06:13:24.220Z,13.80
2022-11-15T06:16:11.061Z,13.80
2022-11-15T06:18:58.759Z,13.90
2022-11-15T06:21:45.911Z,13.80
2022-11-15T06:24:33.010Z,13.80
2022-11-15T06:27:20.320Z,13.90
2022-11-15T06:30:11.303Z,13.90
2022-11-15T06:33:03.644Z,13.90
2022-11-15T06:35:50.581Z,13.90
2022-11-15T06:38:38.169Z,13.90
2022-11-15T06:41:25.627Z,13.90
2022-11-15T06:44:13.362Z,13.90
2022-11-15T06:47:01.921Z,13.90
2022-11-15T06:49:49.361Z,13.90
2022-11-15T06:52:36.695Z,13.90
2022-11-15T06:55:23.907Z,13.90
2022-11-15T06:58:10.685Z,14.00
2022-11-15T07:01:02.525Z,13.90
2022-11-15T07:03:50.934Z,14.00
2022-11-15T07:06:38.226Z,14.00
2022-11-15T07:09:25.264Z,14.00
2022-11-15T07:12:12.258Z,14.00
2022-11-15T07:14:59.660Z,14.00
2022-11-15T07:17:47.058Z,14.00
2022-11-15T07:20:35.572Z,14.00
2022-11-15T07:23:23.266Z,14.00
2022-11-15T07:26:10.743Z,14.00
2022-11-15T07:28:58.217Z,14.00
2022-11-15T07:31:44.974Z,14.00
2022-11-15T07:34:32.247Z,14.00
2022-11-15T07:37:20.905Z,14.10
2022-11-15T07:40:10.666Z,14.10
2022-11-15T07:43:02.506Z,14.10
2022-11-15T07:45:52.365Z,14.10
2022-11-15T07:48:44.789Z,14.10
2022-11-15T07:51:32.596Z,14.00
2022-11-15T07:54:20.758Z,14.00
2022-11-15T07:57:10.268Z,14.00
2022-11-15T07:59:57.619Z,14.00
2022-11-15T08:02:45.053Z,14.00
2022-11-15T08:05:32.448Z,14.00
2022-11-15T08:08:20.035Z,14.00
2022-11-15T08:11:08.316Z,14.00
2022-11-15T08:13:55.345Z,14.00
2022-11-15T08:16:42.382Z,14.00
2022-11-15T08:19:29.951Z,14.00
2022-11-15T08:22:16.999Z,14.00
2022-11-15T08:25:04.500Z,14.00
2022-11-15T08:27:55.416Z,14.00
2022-11-15T08:30:46.413Z,14.00
2022-11-15T08:33:35.109Z,14.00
2022-11-15T08:36:22.725Z,14.00
2022-11-15T08:39:13.039Z,14.00
2022-11-15T08:42:00.624Z,14.00
2022-11-15T08:44:49.053Z,14.00
2022-11-15T08:47:36.410Z,14.10
2022-11-15T08:50:23.957Z,14.10
2022-11-15T08:53:11.179Z,14.10
2022-11-15T08:55:58.379Z,14.10
2022-11-15T08:58:45.704Z,14.10
2022-11-15T09:01:34.073Z,14.10
2022-11-15T09:04:21.470Z,14.10
2022-11-15T09:07:08.776Z,14.10
2022-11-15T09:09:55.976Z,14.20
2022-11-15T09:12:43.160Z,14.20
2022-11-15T09:15:30.538Z,14.20
2022-11-15T09:18:22.145Z,14.20
2022-11-15T09:21:10.347Z,14.20
2022-11-15T09:23:57.978Z,14.20
2022-11-15T09:26:45.484Z,14.30
2022-11-15T09:29:32.874Z,14.30
2022-11-15T09:32:19.691Z,14.30
2022-11-15T09:35:09.050Z,14.30
2022-11-15T09:37:56.643Z,14.30
2022-11-15T09:40:43.529Z,14.30
2022-11-15T09:43:39.070Z,14.30
2022-11-15T09:46:41.582Z,14.30
2022-11-15T09:49:28.667Z,14.40
2022-11-15T09:52:14.802Z,14.40
2022-11-15T09:54:54.745Z,14.40
2022-11-15T09:57:32.563Z,14.40
2022-11-15T10:00:45.205Z,14.40
2022-11-15T10:03:14.677Z,14.40
2022-11-15T10:05:45.673Z,14.40
2022-11-15T10:08:35.794Z,14.50
2022-11-15T10:14:03.417Z,14.50
2022-11-15T10:17:16.226Z,14.60
2022-11-15T10:20:03.912Z,14.60
2022-11-15T10:22:41.478Z,14.60
2022-11-15T10:25:23.933Z,14.60
2022-11-15T10:27:59.191Z,14.60
2022-11-15T10:30:35.694Z,14.60
2022-11-15T10:33:28.866Z,14.60
2022-11-15T10:36:25.644Z,14.70
2022-11-15T10:38:58.579Z,14.70
2022-11-15T10:41:43.659Z,14.70
2022-11-15T10:44:29.667Z,14.70
2022-11-15T10:47:25.729Z,14.70
2022-11-15T10:50:08.421Z,14.80
2022-11-15T10:52:38.896Z,14.80
2022-11-15T10:55:26.705Z,14.80
2022-11-15T10:58:01.674Z,14.80
2022-11-15T11:00:35.295Z,14.80
2022-11-15T11:03:08.377Z,14.90
2022-11-15T11:05:42.078Z,14.90
2022-11-15T11:08:26.473Z,14.90
2022-11-15T11:11:01.891Z,14.90
2022-11-15T11:13:37.279Z,14.90
2022-11-15T11:16:28.773Z,14.90
2022-11-15T11:19:07.001Z,15.00
2022-11-15T11:21:50.922Z,15.00
2022-11-15T11:24:34.504Z,15.00
2022-11-15T11:27:20.826Z,15.00
2022-11-15T11:30:06.493Z,15.10
2022-11-15T11:33:15.074Z,15.10
2022-11-15T11:35:56.884Z,15.10
2022-11-15T11:38:42.022Z,15.10
2022-11-15T11:41:19.728Z,15.10
2022-11-15T11:44:02.481Z,15.20
2022-11-15T11:46:58.625Z,15.10
2022-11-15T11:49:37.331Z,15.20
2022-11-15T11:52:13.602Z,15.20
2022-11-15T11:54:54.964Z,15.20
2022-11-15T11:57:34.673Z,15.20
2022-11-15T12:00:07.634Z,15.20
2022-11-15T12:02:47.296Z,15.30
2022-11-15T12:05:29.169Z,15.30
2022-11-15T12:08:17.789Z,15.30
2022-11-15T12:10:51.096Z,15.30
2022-11-15T12:13:25.377Z,15.30
2022-11-15T12:15:59.661Z,15.30
2022-11-15T12:18:31.861Z,15.30
2022-11-15T12:21:09.520Z,15.30
2022-11-15T12:23:46.718Z,15.30
2022-11-15T12:26:23.739Z,15.30
2022-11-15T12:29:06.936Z,15.30
2022-11-15T12:31:41.577Z,15.30
2022-11-15T12:34:39.280Z,15.40
2022-11-15T12:37:59.909Z,15.40
2022-11-15T12:40:32.089Z,15.40
2022-11-15T12:43:37.296Z,15.40
2022-11-15T12:46:13.477Z,15.40
2022-11-15T12:49:01.149Z,15.40
2022-11-15T12:52:07.951Z,15.40
2022-11-15T12:55:04.084Z,15.40
2022-11-15T12:57:50.722Z,15.40
2022-11-15T13:00:47.905Z,15.40
2022-11-15T13:03:34.797Z,15.40
2022-11-15T13:06:41.536Z,15.40
2022-11-15T13:09:57.208Z,15.40
2022-11-15T13:13:00.200Z,15.40
2022-11-15T13:16:05.571Z,15.40
2022-11-15T13:18:39.978Z,15.40
2022-11-15T13:21:42.325Z,15.40
2022-11-15T13:24:18.090Z,15.40
2022-11-15T13:26:48.296Z,15.40
2022-11-15T13:29:21.770Z,15.40
2022-11-15T13:31:51.472Z,15.40
2022-11-15T13:34:50.410Z,15.50
2022-11-15T13:37:32.162Z,15.50
2022-11-15T13:40:22.924Z,15.50
2022-11-15T13:42:53.330Z,15.50
2022-11-15T13:45:22.665Z,15.50
2022-11-15T13:47:57.264Z,15.50
2022-11-15T13:50:32.288Z,15.50
2022-11-15T13:53:05.257Z,15.50
2022-11-15T13:55:35.148Z,15.50
2022-11-15T13:58:07.795Z,15.50
2022-11-15T14:00:40.962Z,15.40
2022-11-15T14:03:18.684Z,15.40
2022-11-15T14:06:05.142Z,15.40
2022-11-15T14:08:34.168Z,15.40
2022-11-15T14:11:15.515Z,15.40
2022-11-15T14:14:12.998Z,15.40
2022-11-15T14:16:44.520Z,15.40
2022-11-15T14:19:15.378Z,15.40
2022-11-15T14:22:17.282Z,15.30
2022-11-15T14:24:48.945Z,15.30
2022-11-15T14:27:24.929Z,15.30
2022-11-15T14:29:55.264Z,15.30
2022-11-15T14:32:25.591Z,15.30
2022-11-15T14:34:59.266Z,15.30
2022-11-15T14:37:29.941Z,15.30
2022-11-15T14:39:58.717Z,15.30
2022-11-15T14:42:27.429Z,15.30
2022-11-15T14:44:57.398Z,15.30
2022-11-15T14:47:26.185Z,15.30
2022-11-15T14:49:54.605Z,15.30
2022-11-15T14:52:32.880Z,15.30
2022-11-15T14:55:03.307Z,15.30
2022-11-15T14:57:32.477Z,15.30
2022-11-15T15:00:02.346Z,15.30
2022-11-15T15:02:42.956Z,15.30
2022-11-15T15:05:20.373Z,15.30
2022-11-15T15:07:50.024Z,15.30
2022-11-15T15:13:14.926Z,15.30
2022-11-15T15:15:44.733Z,15.30
2022-11-15T15:18:13.264Z,15.30
2022-11-15T15:20:43.559Z,15.30
2022-11-15T15:23:18.762Z,15.30
2022-11-15T15:25:49.720Z,15.30
2022-11-15T15:28:18.302Z,15.30
2022-11-15T15:30:48.223Z,15.30
2022-11-15T15:33:17.366Z,15.30
2022-11-15T15:35:48.107Z,15.30
2022-11-15T15:38:17.053Z,15.30
2022-11-15T15:40:45.416Z,15.30
2022-11-15T15:43:13.786Z,15.30
2022-11-15T15:45:45.790Z,15.30
2022-11-15T15:48:18.356Z,15.30
2022-11-15T15:50:48.089Z,15.30
2022-11-15T15:53:16.549Z,15.30
2022-11-15T15:55:45.003Z,15.30
2022-11-15T15:58:13.613Z,15.20
2022-11-15T16:00:42.089Z,15.30
2022-11-15T16:03:10.874Z,15.30
2022-11-15T16:05:41.187Z,15.30
2022-11-15T16:08:19.772Z,15.30
2022-11-15T16:10:48.814Z,15.30
2022-11-15T16:13:18.420Z,15.30
2022-11-15T16:15:48.609Z,15.30
2022-11-15T16:18:19.329Z,15.30
2022-11-15T16:20:53.116Z,15.30
2022-11-15T16:23:24.550Z,15.30
2022-11-15T16:25:56.574Z,15.30
2022-11-15T16:28:27.720Z,15.30
2022-11-15T16:31:03.784Z,15.30
2022-11-15T16:33:33.063Z,15.30
2022-11-15T16:36:03.279Z,15.30
2022-11-15T16:38:32.382Z,15.30
2022-11-15T16:41:01.371Z,15.30
2022-11-15T16:43:29.978Z,15.30
2022-11-15T16:45:58.380Z,15.30
2022-11-15T16:48:29.689Z,15.30
2022-11-15T16:50:59.535Z,15.30
2022-11-15T16:53:29.763Z,15.30
2022-11-15T16:55:59.960Z,15.30
2022-11-15T16:58:28.349Z,15.30
2022-11-15T17:00:58.744Z,15.30
2022-11-15T17:03:27.373Z,15.30
2022-11-15T17:06:00.434Z,15.30
2022-11-15T17:08:31.055Z,15.30
2022-11-15T17:10:59.965Z,15.30
2022-11-15T17:13:28.994Z,15.30
2022-11-15T17:16:07.051Z,15.30
2022-11-15T17:18:36.414Z,15.30
2022-11-15T17:21:11.141Z,15.30
2022-11-15T17:23:41.321Z,15.30
2022-11-15T17:26:29.035Z,15.30
2022-11-15T17:29:01.044Z,15.30
2022-11-15T17:31:33.646Z,15.30
2022-11-15T17:34:02.811Z,15.30
2022-11-15T17:36:31.967Z,15.30
2022-11-15T17:39:02.145Z,15.30
2022-11-15T17:41:31.192Z,15.40
2022-11-15T17:44:03.251Z,15.40
2022-11-15T17:46:32.242Z,15.40
2022-11-15T17:49:01.151Z,15.40
2022-11-15T17:51:29.805Z,15.40
2022-11-15T17:53:58.201Z,15.40
2022-11-15T17:56:30.630Z,15.40
2022-11-15T17:59:00.573Z,15.40
2022-11-15T18:01:31.239Z,15.40
2022-11-15T18:04:02.093Z,15.40
2022-11-15T18:06:33.893Z,15.40
2022-11-15T18:09:03.521Z,15.40
2022-11-15T18:11:37.471Z,15.40
2022-11-15T18:14:08.688Z,15.40
2022-11-15T18:16:39.961Z,15.40
2022-11-15T18:19:13.404Z,15.40
2022-11-15T18:21:59.032Z,15.40
2022-11-15T18:24:29.751Z,15.40
2022-11-15T18:27:01.550Z,15.40
2022-11-15T18:29:29.896Z,15.40
2022-11-15T18:31:59.360Z,15.50
2022-11-15T18:34:32.146Z,15.50
2022-11-15T18:37:01.339Z,15.50
2022-11-15T18:39:29.922Z,15.50
2022-11-15T18:42:00.477Z,15.50
2022-11-15T18:44:30.067Z,15.50
2022-11-15T18:46:58.953Z,15.50
2022-11-15T18:49:27.492Z,15.50
2022-11-15T18:51:56.938Z,15.50
2022-11-15T18:54:31.098Z,15.50
2022-11-15T18:57:01.752Z,15.50
2022-11-15T18:59:31.109Z,15.50
2022-11-15T19:01:59.514Z,15.50
2022-11-15T19:04:28.063Z,15.50
2022-11-15T19:06:56.699Z,15.50
2022-11-15T19:09:31.934Z,15.60
2022-11-15T19:12:01.905Z,15.50
2022-11-15T19:14:30.369Z,15.60
2022-11-15T19:16:59.371Z,15.60
2022-11-15T19:19:29.392Z,15.60
2022-11-15T19:21:58.315Z,15.60
2022-11-15T19:24:27.514Z,15.60
2022-11-15T19:26:55.964Z,15.60
2022-11-15T19:29:25.780Z,15.60
2022-11-15T19:31:54.298Z,15.60
2022-11-15T19:34:22.697Z,15.60
2022-11-15T19:36:51.211Z,15.60
2022-11-15T19:39:19.623Z,15.60
2022-11-15T19:41:48.271Z,15.60
2022-11-15T19:44:16.895Z,15.60
2022-11-15T19:46:46.669Z,15.60
2022-11-15T19:49:15.166Z,15.60
2022-11-15T19:51:45.365Z,15.60
2022-11-15T19:54:13.917Z,15.60
2022-11-15T19:56:42.861Z,15.60
2022-11-15T19:59:14.232Z,15.60
2022-11-15T20:01:43.099Z,15.60
2022-11-15T20:04:13.232Z,15.60
2022-11-15T20:06:44.140Z,15.60
2022-11-15T20:09:17.498Z,15.60
2022-11-15T20:11:46.378Z,15.60
2022-11-15T20:14:15.062Z,15.60
2022-11-15T20:16:43.801Z,15.60
2022-11-15T20:19:15.880Z,15.60
2022-11-15T20:21:44.786Z,15.60
2022-11-15T20:24:13.234Z,15.60
2022-11-15T20:26:43.651Z,15.60
2022-11-15T20:29:12.237Z,15.60
2022-11-15T20:31:40.796Z,15.60
2022-11-15T20:34:09.805Z,15.60
2022-11-15T20:36:39.692Z,15.50
2022-11-15T20:39:08.384Z,15.50
2022-11-15T20:41:37.141Z,15.50
2022-11-15T20:44:05.838Z,15.50
2022-11-15T20:46:34.251Z,15.50
2022-11-15T20:49:03.148Z,15.50
2022-11-15T20:51:32.178Z,15.50
2022-11-15T20:54:02.110Z,15.50
2022-11-15T20:56:30.679Z,15.50
2022-11-15T20:58:59.243Z,15.50
2022-11-15T21:01:27.855Z,15.50
2022-11-15T21:03:57.496Z,15.50
2022-11-15T21:06:27.693Z,15.50
2022-11-15T21:09:14.497Z,15.50
2022-11-15T21:12:01.841Z,15.50
2022-11-15T21:14:30.374Z,15.50
2022-11-15T21:16:59.529Z,15.40
2022-11-15T21:19:34.063Z,15.40
2022-11-15T21:22:09.344Z,15.40
2022-11-15T21:24:37.854Z,15.40
2022-11-15T21:27:08.778Z,15.50
2022-11-15T21:29:37.848Z,15.40
2022-11-15T21:32:07.839Z,15.50
2022-11-15T21:34:36.547Z,15.40
2022-11-15T21:37:05.693Z,15.40
2022-11-15T21:39:34.571Z,15.40
2022-11-15T21:42:03.223Z,15.50
2022-11-15T21:44:33.477Z,15.40
2022-11-15T21:47:01.967Z,15.50
2022-11-15T21:49:30.546Z,15.40
2022-11-15T21:51:59.013Z,15.50
2022-11-15T21:54:27.439Z,15.50
2022-11-15T21:56:55.927Z,15.40
2022-11-15T21:59:24.769Z,15.50
2022-11-15T22:02:12.077Z,15.40
2022-11-15T22:04:40.931Z,15.40
2022-11-15T22:07:09.453Z,15.40
2022-11-15T22:09:38.080Z,15.40
2022-11-15T22:12:07.615Z,15.40
2022-11-15T22:14:36.039Z,15.40
2022-11-15T22:17:06.638Z,15.40
2022-11-15T22:19:51.919Z,15.40
2022-11-15T22:22:21.414Z,15.40
2022-11-15T22:24:50.065Z,15.40
2022-11-15T22:27:19.007Z,15.40
2022-11-15T22:29:47.600Z,15.40
2022-11-15T22:32:17.686Z,15.40
2022-11-15T22:34:46.327Z,15.40
2022-11-15T22:37:20.380Z,15.40
2022-11-15T22:39:49.548Z,15.40
2022-11-15T22:42:22.306Z,15.40
2022-11-15T22:44:52.402Z,15.40
2022-11-15T22:47:22.465Z,15.40
2022-11-15T22:49:51.289Z,15.40
2022-11-15T22:52:20.116Z,15.40
2022-11-15T22:54:48.671Z,15.40
2022-11-15T22:57:17.388Z,15.40
2022-11-15T22:59:46.663Z,15.40
2022-11-15T23:02:15.385Z,15.40
2022-11-15T23:04:46.742Z,15.40
2022-11-15T23:07:15.539Z,15.40
2022-11-15T23:09:46.535Z,15.40
2022-11-15T23:12:36.762Z,15.40
2022-11-15T23:15:07.108Z,15.40
2022-11-15T23:17:36.095Z,15.40
2022-11-15T23:20:36.379Z,15.40
2022-11-15T23:22:56.184Z,15.40
2022-11-15T23:25:24.838Z,15.40
2022-11-15T23:27:53.586Z,15.40
2022-11-15T23:30:39.601Z,15.40
2022-11-15T23:33:30.016Z,15.30
2022-11-15T23:36:00.250Z,15.40
2022-11-15T23:38:29.016Z,15.30
2022-11-15T23:40:57.563Z,15.40
2022-11-15T23:43:26.111Z,15.30
2022-11-15T23:45:54.871Z,15.30
2022-11-15T23:48:23.528Z,15.30
2022-11-15T23:50:52.085Z,15.30
2022-11-15T23:53:22.205Z,15.30
2022-11-15T23:55:57.179Z,15.30
2022-11-15T23:58:25.847Z,15.30
